Hampton, NH (03842)

8:03 PM EST on January 18, 2017 (GMT -0500)
Towle Farm | | Change Station
Active Advisory: Small Craft Advisory

Elev 56 ft 42.94 °N, 70.85 °W | Updated 1 minute ago

Overcast
Overcast
28.4 °F
Feels Like 24 °F
N
4.0
Wind Variable Wind from NNE
Gusts 10.0 mph

Today
High -- | Low -- °F
--% Chance of Precip.
Yesterday
High -- | Low -- °F
Precip. -- in
Pressure 30.07 in
Visibility 1.0 miles
Clouds Mostly Cloudy 500 ft
Overcast 1000 ft
Windchill 24 °F
Dew Point 27 °F
Humidity 96%
Rainfall 0.15 in
Snow Depth Not available.
7:09 AM 4:38 PM
Waning Gibbous, 58% visible
METAR KPSM 190058Z 35005KT 1SM R34/P6000FT -SN BR BKN005 OVC010 M02/M03 A3006 RMK AO2A SLP183 P0000 T10171030
Pressure 30.07 in
Visibility 1.0 miles
Clouds Mostly Cloudy 500 ft
Overcast 1000 ft
Windchill 24 °F
Dew Point 27 °F
Humidity 96%
Rainfall 0.15 in
Snow Depth Not available.
7:09 AM 4:38 PM
Waning Gibbous, 58% visible
METAR KPSM 190058Z 35005KT 1SM R34/P6000FT -SN BR BKN005 OVC010 M02/M03 A3006 RMK AO2A SLP183 P0000 T10171030

Get Your Daily Forecast Email!

Thanks for signing up!

Be on the lookout for a verification email in your inbox.

You'll start receiving the daily forecast at 8 AM.

×

10-Day Weather Forecast

Almanac

Astronomy

Jan. 18, 2017 Rise Set
Actual Time
Civil Twilight
Nautical Twilight
Astronomical Twilight
Moon
Length of Visible Light
Length of Day
Tomorrow will be .
, % of the Moon is Illuminated

Today's Extremes

State Highs State Lows

Community

WunderPhotos

Upload Photos

1,962,540 photos uploaded!

WunderBlog® & News

Nearby

Air Quality

  Air Quality AQ Index Pollutant
Not available.

Snow Depth

Station Depth Elevation

Earthquake Activity

City Distance Mag. Time & Date
Minimum magnitude displayed is 2.5.

Coastal Water Temperatures

Place Temperature

Stations

Nearby Weather Stations

Station Location Temp. Windchill Dew Point Humidity Wind Precip. Elev Updated Type
                   

Watches & Warnings

Small Craft Advisory
Issued: 2:50 PM EST Jan. 18, 2017 – National Weather Service

... Small Craft Advisory now in effect until 3 PM EST Thursday...

* winds... east 10 to 20 kt with gusts up to 30 kt.

* Seas... 7 to 10 feet.

Precautionary/preparedness actions...

A Small Craft Advisory means that wind speeds of 25 to 33 knots
are expected to produce hazardous wave conditions to small craft.
Inexperienced mariners... especially those operating smaller
vessels should avoid navigating in these conditions.